Angoulême-Brie-Champniers Airport

Airport
ICAO code: 
LFBU
IATA Code: 
ANG
Summary
ICAO Region: 
EUR
Territory: 
Location: 
, Poitou-Charentes
Serving: 
Angouleme
Elevation: 
436 ft
Coordinates: 
Aerial View: 
45° 43' 45.289" N, 0° 13' 17.242" E
Metar
Observation
LFBU 241600Z AUTO 34003KT CAVOK 11/01 Q1029 NOSIG
Station
BRIE CHAMPNIERS
Date/Time
2022-01-24 16:00:00
Wind direction
340°
Wind speed
03 kts
Lowest cloud amount
clouds and visibility OK
Temperature
11°C
Dew point
1°C
Humidity
50%
QNH
1029 hPa
Weather condition
n/a

Runways

Designator Length Width Surface Rops
10/28 1810 45 ASP No/No
Airport map: 
Aerial View: 

SKYbrary Partners:

Safety knowledge contributed by: